Time;durP1;ratioP1;P1;durP2;ratioP2;P2;SDS_P1;SDS_P2;PMS_P1;PMS_P2;Temp;Humidity;BMP_temperature;BMP_pressure;BME280_temperature;BME280_humidity;BME280_pressure;Samples;Min_cycle;Max_cycle;Signal;HPM_P1;HPM_P2
2023/05/31 00:00:15;;;;;;;0.43;0.43;;;;;;;;;;7398444;19;20153;-90
2023/05/31 00:02:42;;;;;;;0.70;0.47;;;;;;;;;;7401090;19;20208;-90
2023/05/31 00:05:09;;;;;;;0.50;0.50;;;;;;;;;;7399013;19;20143;-89
2023/05/31 00:07:35;;;;;;;0.47;0.47;;;;;;;;;;7404934;19;20135;-91
2023/05/31 00:10:03;;;;;;;0.47;0.47;;;;;;;;;;7402142;19;20170;-90
2023/05/31 00:12:29;;;;;;;0.50;0.50;;;;;;;;;;7404517;19;20148;-90
2023/05/31 00:14:56;;;;;;;0.52;0.52;;;;;;;;;;7405335;19;20132;-88
2023/05/31 00:17:26;;;;;;;0.60;0.60;;;;;;;;;;7404081;19;20141;-88
2023/05/31 00:20:12;;;;;;;0.40;0.40;;;;;;;;;;7402374;19;20164;-89
2023/05/31 00:22:39;;;;;;;0.40;0.40;;;;;;;;;;7404154;19;20133;-90
2023/05/31 00:25:07;;;;;;;0.68;0.60;;;;;;;;;;7403752;19;20153;-88
2023/05/31 00:27:33;;;;;;;0.73;0.73;;;;;;;;;;7403089;19;20141;-89
2023/05/31 00:30:00;;;;;;;0.60;0.60;;;;;;;;;;7400545;19;20153;-88
2023/05/31 00:32:27;;;;;;;0.63;0.63;;;;;;;;;;7401546;19;20599;-89
2023/05/31 00:34:53;;;;;;;0.70;0.70;;;;;;;;;;7397950;19;20551;-90
2023/05/31 00:37:20;;;;;;;0.70;0.70;;;;;;;;;;7399032;19;20250;-90
2023/05/31 00:39:47;;;;;;;0.50;0.50;;;;;;;;;;7395531;19;20149;-91
2023/05/31 00:42:13;;;;;;;1.25;1.17;;;;;;;;;;7398906;19;20135;-90
2023/05/31 00:44:40;;;;;;;0.63;0.63;;;;;;;;;;7397727;19;20156;-90
2023/05/31 00:47:07;;;;;;;0.50;0.50;;;;;;;;;;7394671;19;20144;-90
2023/05/31 00:49:34;;;;;;;0.40;0.40;;;;;;;;;;7395291;19;20208;-91
2023/05/31 00:52:01;;;;;;;0.45;0.45;;;;;;;;;;7398332;19;20148;-90
2023/05/31 00:54:28;;;;;;;0.57;0.57;;;;;;;;;;7394707;19;20562;-90
2023/05/31 00:56:55;;;;;;;0.30;0.30;;;;;;;;;;7398024;19;20144;-90
2023/05/31 00:59:21;;;;;;;1.02;0.93;;;;;;;;;;7397837;19;20624;-90
2023/05/31 01:01:48;;;;;;;0.90;0.90;;;;;;;;;;7398670;19;20722;-89
2023/05/31 01:04:16;;;;;;;0.77;0.60;;;;;;;;;;7395024;19;20137;-91
2023/05/31 01:06:43;;;;;;;0.50;0.50;;;;;;;;;;7397615;19;20136;-91
2023/05/31 01:09:10;;;;;;;0.70;0.70;;;;;;;;;;7395647;19;20159;-90
2023/05/31 01:12:09;;;;;;;0.63;0.63;;;;;;;;;;7396550;19;20141;-90
2023/05/31 01:14:48;;;;;;;0.40;0.40;;;;;;;;;;7393784;19;20655;-90
2023/05/31 01:17:30;;;;;;;1.05;0.95;;;;;;;;;;7396728;19;20147;-90
2023/05/31 01:20:00;;;;;;;0.82;0.60;;;;;;;;;;7393980;19;20505;-91
2023/05/31 01:22:41;;;;;;;1.52;1.05;;;;;;;;;;7397813;19;20140;-88
2023/05/31 01:25:25;;;;;;;0.40;0.40;;;;;;;;;;7399832;19;20141;-88
2023/05/31 01:27:53;;;;;;;0.63;0.63;;;;;;;;;;7400391;19;20149;-90
2023/05/31 01:30:21;;;;;;;0.55;0.55;;;;;;;;;;7398152;19;20145;-88
2023/05/31 01:32:49;;;;;;;1.27;1.17;;;;;;;;;;7397129;19;20140;-89
2023/05/31 01:35:16;;;;;;;0.85;0.85;;;;;;;;;;7399043;19;20125;-87
2023/05/31 01:37:43;;;;;;;0.82;0.82;;;;;;;;;;7402073;19;20162;-88
2023/05/31 01:40:10;;;;;;;0.43;0.43;;;;;;;;;;7397809;19;20673;-89
2023/05/31 01:42:37;;;;;;;0.60;0.60;;;;;;;;;;7399676;19;20129;-87
2023/05/31 01:45:04;;;;;;;0.85;0.80;;;;;;;;;;7398480;19;20141;-90
2023/05/31 01:47:33;;;;;;;0.60;0.60;;;;;;;;;;7398137;19;20598;-89
2023/05/31 01:50:00;;;;;;;0.85;0.82;;;;;;;;;;7399258;19;20186;-89
2023/05/31 01:52:28;;;;;;;0.60;0.60;;;;;;;;;;7399646;19;20137;-88
2023/05/31 01:54:55;;;;;;;0.70;0.70;;;;;;;;;;7400063;19;20141;-88
2023/05/31 01:57:22;;;;;;;0.50;0.50;;;;;;;;;;7397107;19;20622;-91
2023/05/31 01:59:49;;;;;;;0.63;0.63;;;;;;;;;;7403173;19;20224;-87
2023/05/31 02:02:16;;;;;;;0.40;0.40;;;;;;;;;;7406707;19;20574;-89
2023/05/31 02:04:43;;;;;;;0.30;0.30;;;;;;;;;;7406067;19;20157;-88
2023/05/31 02:07:12;;;;;;;1.23;1.17;;;;;;;;;;7402785;19;20478;-88
2023/05/31 02:09:39;;;;;;;0.60;0.60;;;;;;;;;;7405006;19;20169;-89
2023/05/31 02:12:06;;;;;;;0.67;0.67;;;;;;;;;;7405098;19;20121;-89
2023/05/31 02:14:33;;;;;;;0.30;0.30;;;;;;;;;;7406523;19;20184;-88
2023/05/31 02:16:59;;;;;;;0.80;0.80;;;;;;;;;;7404290;19;20129;-89
2023/05/31 02:19:26;;;;;;;0.40;0.40;;;;;;;;;;7405475;19;20180;-89
2023/05/31 02:21:52;;;;;;;0.30;0.30;;;;;;;;;;7403823;19;20143;-88
2023/05/31 02:24:19;;;;;;;0.57;0.57;;;;;;;;;;7397240;19;20141;-90
2023/05/31 02:26:46;;;;;;;0.57;0.57;;;;;;;;;;7402636;19;20140;-90
2023/05/31 02:29:13;;;;;;;0.70;0.70;;;;;;;;;;7401423;19;20144;-90
2023/05/31 02:31:39;;;;;;;0.50;0.50;;;;;;;;;;7404565;19;20129;-91
2023/05/31 02:34:06;;;;;;;0.30;0.30;;;;;;;;;;7404211;19;20149;-90
2023/05/31 02:36:33;;;;;;;0.63;0.63;;;;;;;;;;7405213;19;20492;-89
2023/05/31 02:39:00;;;;;;;2.08;0.77;;;;;;;;;;7404788;19;20141;-91
2023/05/31 02:41:26;;;;;;;0.87;0.87;;;;;;;;;;7398423;19;20172;-90
2023/05/31 02:43:53;;;;;;;0.50;0.50;;;;;;;;;;7400253;19;20208;-90
2023/05/31 02:46:20;;;;;;;0.30;0.30;;;;;;;;;;7400994;19;20125;-91
2023/05/31 02:48:46;;;;;;;0.80;0.80;;;;;;;;;;7399823;19;20140;-91
2023/05/31 02:51:13;;;;;;;0.40;0.40;;;;;;;;;;7396833;19;20183;-91
2023/05/31 02:53:40;;;;;;;1.80;0.93;;;;;;;;;;7401695;19;20147;-92
2023/05/31 02:56:08;;;;;;;0.32;0.32;;;;;;;;;;7402780;19;20127;-91
2023/05/31 02:58:34;;;;;;;1.08;0.70;;;;;;;;;;7403722;19;20148;-90
2023/05/31 03:01:02;;;;;;;2.33;0.83;;;;;;;;;;7401098;19;20163;-90
2023/05/31 03:03:28;;;;;;;0.60;0.60;;;;;;;;;;7401138;19;20133;-91
2023/05/31 03:05:55;;;;;;;0.53;0.53;;;;;;;;;;7402045;19;20200;-91
2023/05/31 03:08:22;;;;;;;0.53;0.53;;;;;;;;;;7401550;19;20161;-90
2023/05/31 03:10:49;;;;;;;0.40;0.40;;;;;;;;;;7399553;19;20156;-91
2023/05/31 03:13:15;;;;;;;0.63;0.63;;;;;;;;;;7401488;19;20160;-90
2023/05/31 03:15:42;;;;;;;0.60;0.60;;;;;;;;;;7400175;19;20161;-91
2023/05/31 03:18:09;;;;;;;0.40;0.40;;;;;;;;;;7399818;19;20153;-89
2023/05/31 03:20:36;;;;;;;0.30;0.30;;;;;;;;;;7397231;19;20168;-91
2023/05/31 03:23:03;;;;;;;0.53;0.53;;;;;;;;;;7400526;19;20184;-90
2023/05/31 03:25:30;;;;;;;0.60;0.60;;;;;;;;;;7400471;19;20141;-90
2023/05/31 03:27:58;;;;;;;0.53;0.53;;;;;;;;;;7400576;19;20125;-90
2023/05/31 03:30:25;;;;;;;0.60;0.57;;;;;;;;;;7397305;19;20169;-90
2023/05/31 03:32:51;;;;;;;0.43;0.43;;;;;;;;;;7399670;19;20157;-90
2023/05/31 03:35:18;;;;;;;0.40;0.40;;;;;;;;;;7398658;19;20141;-89
2023/05/31 03:37:45;;;;;;;0.47;0.47;;;;;;;;;;7403656;19;20523;-89
2023/05/31 03:40:12;;;;;;;1.40;0.63;;;;;;;;;;7400452;19;20216;-87
2023/05/31 03:42:39;;;;;;;1.37;1.27;;;;;;;;;;7400501;19;20129;-90
2023/05/31 03:45:06;;;;;;;0.93;0.70;;;;;;;;;;7400105;19;20141;-87
2023/05/31 03:47:33;;;;;;;0.50;0.50;;;;;;;;;;7403242;19;20161;-90
2023/05/31 03:50:00;;;;;;;0.90;0.90;;;;;;;;;;7399984;19;20149;-88
2023/05/31 03:52:27;;;;;;;0.73;0.73;;;;;;;;;;7399751;19;20165;-90
2023/05/31 03:54:54;;;;;;;1.13;0.73;;;;;;;;;;7389155;19;20508;-90
2023/05/31 03:57:20;;;;;;;0.93;0.83;;;;;;;;;;7391497;19;20129;-91
2023/05/31 03:59:47;;;;;;;1.07;0.97;;;;;;;;;;7393364;19;20184;-90
2023/05/31 04:02:14;;;;;;;0.67;0.67;;;;;;;;;;7395424;19;20136;-91
2023/05/31 04:04:41;;;;;;;0.73;0.73;;;;;;;;;;7396519;19;20148;-90
2023/05/31 04:07:08;;;;;;;0.30;0.30;;;;;;;;;;7391638;19;20144;-90
2023/05/31 04:09:35;;;;;;;1.93;0.70;;;;;;;;;;7390568;19;20145;-92
2023/05/31 04:12:02;;;;;;;1.23;1.13;;;;;;;;;;7391659;19;20594;-91
2023/05/31 04:14:29;;;;;;;0.40;0.40;;;;;;;;;;7393084;19;20133;-91
2023/05/31 04:16:56;;;;;;;0.53;0.53;;;;;;;;;;7389502;19;20602;-91
2023/05/31 04:19:23;;;;;;;0.40;0.40;;;;;;;;;;7390687;19;20220;-90
2023/05/31 04:21:49;;;;;;;0.40;0.40;;;;;;;;;;7394033;19;20153;-89
2023/05/31 04:24:16;;;;;;;0.50;0.50;;;;;;;;;;7392990;19;20137;-90
2023/05/31 04:26:45;;;;;;;1.07;1.07;;;;;;;;;;7395057;19;20137;-90
2023/05/31 04:29:11;;;;;;;0.30;0.30;;;;;;;;;;7392191;19;20133;-89
2023/05/31 04:31:38;;;;;;;0.50;0.50;;;;;;;;;;7392534;19;20145;-89
2023/05/31 04:34:18;;;;;;;0.53;0.53;;;;;;;;;;7394406;19;20193;-90
2023/05/31 04:36:48;;;;;;;1.70;0.80;;;;;;;;;;7393936;19;20143;-90
2023/05/31 04:39:16;;;;;;;0.77;0.77;;;;;;;;;;7389833;19;20610;-90
2023/05/31 04:41:43;;;;;;;0.83;0.83;;;;;;;;;;7393737;19;20152;-90
2023/05/31 04:44:10;;;;;;;0.63;0.63;;;;;;;;;;7390729;19;20164;-90
2023/05/31 04:46:40;;;;;;;0.57;0.57;;;;;;;;;;7388231;19;20224;-90
2023/05/31 04:49:18;;;;;;;0.33;0.33;;;;;;;;;;7392357;19;20149;-92
2023/05/31 04:51:45;;;;;;;0.30;0.30;;;;;;;;;;7392257;19;20151;-91
2023/05/31 04:54:12;;;;;;;0.47;0.47;;;;;;;;;;7392915;19;20473;-91
2023/05/31 04:56:38;;;;;;;0.63;0.63;;;;;;;;;;7392974;19;20149;-90
2023/05/31 04:59:08;;;;;;;0.73;0.73;;;;;;;;;;7393892;19;20143;-90
2023/05/31 05:01:35;;;;;;;0.73;0.73;;;;;;;;;;7394264;19;20144;-90
2023/05/31 05:04:02;;;;;;;0.60;0.60;;;;;;;;;;7392149;19;20137;-90
2023/05/31 05:06:29;;;;;;;0.40;0.40;;;;;;;;;;7395411;19;20129;-90
2023/05/31 05:08:56;;;;;;;0.43;0.43;;;;;;;;;;7396199;19;20144;-90
2023/05/31 05:11:23;;;;;;;0.53;0.53;;;;;;;;;;7392238;19;20172;-91
2023/05/31 05:13:50;;;;;;;1.90;0.60;;;;;;;;;;7390512;19;20140;-91
2023/05/31 05:16:19;;;;;;;0.57;0.57;;;;;;;;;;7390472;19;20141;-91
2023/05/31 05:18:46;;;;;;;1.40;1.30;;;;;;;;;;7392998;19;20157;-91
2023/05/31 05:21:12;;;;;;;0.60;0.60;;;;;;;;;;7391643;19;20168;-91
2023/05/31 05:23:39;;;;;;;0.57;0.57;;;;;;;;;;7394769;19;20145;-90
2023/05/31 05:26:06;;;;;;;0.50;0.50;;;;;;;;;;7393608;19;20137;-91
2023/05/31 05:28:33;;;;;;;0.30;0.30;;;;;;;;;;7391179;19;20133;-90
2023/05/31 05:31:00;;;;;;;0.80;0.80;;;;;;;;;;7390342;19;20156;-90
2023/05/31 05:33:28;;;;;;;0.80;0.80;;;;;;;;;;7392192;19;20643;-91
2023/05/31 05:35:55;;;;;;;0.30;0.30;;;;;;;;;;7391891;19;20494;-90
2023/05/31 05:38:22;;;;;;;0.90;0.90;;;;;;;;;;7392809;19;20156;-90
2023/05/31 05:40:49;;;;;;;0.30;0.30;;;;;;;;;;7391701;19;20151;-90
2023/05/31 05:43:15;;;;;;;0.53;0.50;;;;;;;;;;7394347;19;20602;-90
2023/05/31 05:45:42;;;;;;;0.50;0.50;;;;;;;;;;7393333;19;20701;-90
2023/05/31 05:48:09;;;;;;;0.63;0.63;;;;;;;;;;7390441;19;20137;-91
2023/05/31 05:50:36;;;;;;;0.95;0.88;;;;;;;;;;7389584;19;20153;-91
2023/05/31 05:53:03;;;;;;;0.60;0.60;;;;;;;;;;7392211;19;20143;-91
2023/05/31 05:55:30;;;;;;;0.90;0.80;;;;;;;;;;7392894;19;20168;-92
2023/05/31 05:57:56;;;;;;;0.50;0.50;;;;;;;;;;7391398;19;20136;-91
2023/05/31 06:00:24;;;;;;;0.50;0.50;;;;;;;;;;7392850;19;20160;-91
2023/05/31 06:02:51;;;;;;;1.07;1.07;;;;;;;;;;7393862;19;20141;-91
2023/05/31 06:05:18;;;;;;;0.73;0.73;;;;;;;;;;7394555;19;20196;-91
2023/05/31 06:07:45;;;;;;;0.40;0.40;;;;;;;;;;7395529;19;20148;-89
2023/05/31 06:10:11;;;;;;;0.70;0.70;;;;;;;;;;7393852;19;20180;-88
2023/05/31 06:12:38;;;;;;;0.30;0.30;;;;;;;;;;7393792;19;20201;-90
2023/05/31 06:15:06;;;;;;;0.63;0.63;;;;;;;;;;7393777;19;20140;-91
2023/05/31 06:17:32;;;;;;;0.85;0.85;;;;;;;;;;7392335;19;20509;-91
2023/05/31 06:19:59;;;;;;;0.93;0.93;;;;;;;;;;7391301;19;20172;-91
2023/05/31 06:22:25;;;;;;;0.50;0.50;;;;;;;;;;7394107;19;20141;-91
2023/05/31 06:24:53;;;;;;;0.70;0.70;;;;;;;;;;7391249;19;20140;-91
2023/05/31 06:27:20;;;;;;;0.57;0.57;;;;;;;;;;7391051;19;20562;-91
2023/05/31 06:29:47;;;;;;;0.43;0.43;;;;;;;;;;7393338;19;20662;-91
2023/05/31 06:32:13;;;;;;;1.85;0.75;;;;;;;;;;7389671;19;20156;-91
2023/05/31 06:34:40;;;;;;;0.45;0.45;;;;;;;;;;7394216;19;20133;-91
2023/05/31 06:37:08;;;;;;;0.68;0.68;;;;;;;;;;7391852;19;20160;-91
2023/05/31 06:39:35;;;;;;;0.40;0.40;;;;;;;;;;7391613;19;20515;-91
2023/05/31 06:42:02;;;;;;;1.13;1.05;;;;;;;;;;7393333;19;20143;-91
2023/05/31 06:44:28;;;;;;;0.60;0.60;;;;;;;;;;7391860;19;20144;-92
2023/05/31 06:46:56;;;;;;;1.15;1.15;;;;;;;;;;7394321;19;20200;-91
2023/05/31 06:49:22;;;;;;;0.60;0.60;;;;;;;;;;7395930;19;20141;-90
2023/05/31 06:51:49;;;;;;;0.50;0.50;;;;;;;;;;7401008;19;20135;-91
2023/05/31 06:54:16;;;;;;;1.00;0.80;;;;;;;;;;7397805;19;20195;-90
2023/05/31 06:56:42;;;;;;;0.88;0.85;;;;;;;;;;7400081;19;20147;-91
2023/05/31 06:59:09;;;;;;;0.70;0.70;;;;;;;;;;7400302;19;20141;-92
2023/05/31 07:01:36;;;;;;;0.57;0.57;;;;;;;;;;7397983;19;20143;-92
2023/05/31 07:04:02;;;;;;;0.60;0.60;;;;;;;;;;7400289;19;20642;-91
2023/05/31 07:06:29;;;;;;;0.82;0.82;;;;;;;;;;7402106;19;20144;-91
2023/05/31 07:08:56;;;;;;;0.70;0.70;;;;;;;;;;7396905;19;20136;-91
2023/05/31 07:11:23;;;;;;;0.45;0.45;;;;;;;;;;7396818;19;20167;-91
2023/05/31 07:13:50;;;;;;;0.68;0.68;;;;;;;;;;7396824;19;20137;-91
2023/05/31 07:16:16;;;;;;;0.75;0.75;;;;;;;;;;7395795;19;20137;-91
2023/05/31 07:18:45;;;;;;;0.50;0.50;;;;;;;;;;7397109;19;20152;-91
2023/05/31 07:21:12;;;;;;;0.80;0.80;;;;;;;;;;7396429;19;20217;-91
2023/05/31 07:23:39;;;;;;;0.50;0.50;;;;;;;;;;7397669;19;20168;-90
2023/05/31 07:26:05;;;;;;;0.60;0.60;;;;;;;;;;7401136;19;20496;-90
2023/05/31 07:28:32;;;;;;;0.73;0.73;;;;;;;;;;7398536;19;20212;-91
2023/05/31 07:31:00;;;;;;;0.68;0.68;;;;;;;;;;7396734;19;20156;-89
2023/05/31 11:49:35;;;;;;;0.98;0.98;;;;;;;;;;7404277;19;20566;-92
2023/05/31 11:52:40;;;;;;;0.93;0.90;;;;;;;;;;7398916;19;20150;-93
2023/05/31 11:55:09;;;;;;;1.33;1.23;;;;;;;;;;7406369;19;20160;-91
2023/05/31 11:57:44;;;;;;;1.05;1.05;;;;;;;;;;7405756;19;20208;-92
2023/05/31 12:00:15;;;;;;;5.97;1.08;;;;;;;;;;7399513;19;20216;-91
2023/05/31 12:02:44;;;;;;;1.30;1.20;;;;;;;;;;7407754;19;20128;-92
2023/05/31 12:05:17;;;;;;;1.52;1.27;;;;;;;;;;7409648;19;20157;-90
2023/05/31 12:07:44;;;;;;;0.75;0.75;;;;;;;;;;7409258;19;20133;-91
2023/05/31 12:10:11;;;;;;;1.33;1.30;;;;;;;;;;7406860;19;20153;-91
2023/05/31 12:12:40;;;;;;;0.70;0.70;;;;;;;;;;7408776;19;20140;-91
2023/05/31 12:15:07;;;;;;;0.95;0.95;;;;;;;;;;7407122;19;20141;-92
2023/05/31 12:17:34;;;;;;;1.67;0.82;;;;;;;;;;7407726;19;20208;-90
2023/05/31 12:20:01;;;;;;;1.02;1.00;;;;;;;;;;7406235;19;20156;-91
2023/05/31 12:22:27;;;;;;;0.95;0.95;;;;;;;;;;7409334;19;20145;-89
2023/05/31 12:24:55;;;;;;;0.60;0.60;;;;;;;;;;7408694;19;20608;-92
2023/05/31 12:27:23;;;;;;;1.23;1.13;;;;;;;;;;7400315;19;20129;-92
2023/05/31 12:30:16;;;;;;;0.77;0.77;;;;;;;;;;7403954;19;20165;-90
2023/05/31 12:32:46;;;;;;;0.90;0.88;;;;;;;;;;7409016;19;20129;-90
2023/05/31 12:35:13;;;;;;;1.00;1.00;;;;;;;;;;7407840;19;20160;-88
2023/05/31 12:37:44;;;;;;;0.80;0.80;;;;;;;;;;7401250;19;20151;-89
2023/05/31 12:40:15;;;;;;;1.05;0.93;;;;;;;;;;7404144;19;20546;-90
2023/05/31 12:43:12;;;;;;;1.20;1.20;;;;;;;;;;7407965;19;20140;-93
2023/05/31 12:45:43;;;;;;;1.05;1.05;;;;;;;;;;7401007;19;20145;-92
2023/05/31 12:48:54;;;;;;;1.02;0.93;;;;;;;;;;7398272;19;20148;-93
2023/05/31 13:02:30;;;;;;;0.70;0.70;;;;;;;;;;7408086;19;20127;-94
2023/05/31 13:05:32;;;;;;;0.60;0.60;;;;;;;;;;7392779;19;20149;-93
2023/05/31 14:16:59;;;;;;;0.95;0.93;;;;;;;;;;7397152;19;20196;-92
2023/05/31 14:19:26;;;;;;;1.33;0.88;;;;;;;;;;7392901;19;20599;-92
2023/05/31 14:21:53;;;;;;;0.82;0.82;;;;;;;;;;7394944;19;20177;-91
2023/05/31 14:24:20;;;;;;;0.73;0.73;;;;;;;;;;7394499;19;20161;-92
2023/05/31 14:26:47;;;;;;;1.83;1.38;;;;;;;;;;7397330;19;20177;-92
2023/05/31 14:29:14;;;;;;;1.23;1.13;;;;;;;;;;7395496;19;20208;-91
2023/05/31 14:31:40;;;;;;;0.68;0.68;;;;;;;;;;7396598;19;20165;-91
2023/05/31 14:34:07;;;;;;;0.40;0.40;;;;;;;;;;7397918;19;20125;-92
2023/05/31 14:36:36;;;;;;;1.02;0.88;;;;;;;;;;7395508;19;20141;-91
2023/05/31 14:42:06;;;;;;;0.93;0.85;;;;;;;;;;7392000;19;20173;-92
2023/05/31 14:44:35;;;;;;;0.70;0.70;;;;;;;;;;7391568;19;20141;-92
2023/05/31 14:47:03;;;;;;;0.85;0.85;;;;;;;;;;7391253;19;20476;-93
2023/05/31 14:49:40;;;;;;;1.13;1.02;;;;;;;;;;7397370;19;20587;-92
2023/05/31 14:52:13;;;;;;;0.65;0.65;;;;;;;;;;7399178;19;20141;-92
2023/05/31 14:54:42;;;;;;;0.90;0.85;;;;;;;;;;7397661;19;20476;-92
2023/05/31 14:57:08;;;;;;;1.50;1.40;;;;;;;;;;7393450;19;20151;-93
2023/05/31 14:59:35;;;;;;;0.50;0.50;;;;;;;;;;7393990;19;20541;-91
2023/05/31 15:02:02;;;;;;;0.93;0.68;;;;;;;;;;7391827;19;20137;-91
2023/05/31 15:04:34;;;;;;;3.15;1.08;;;;;;;;;;7395156;19;20153;-91
2023/05/31 15:07:06;;;;;;;0.60;0.60;;;;;;;;;;7396206;19;20153;-91
2023/05/31 15:09:34;;;;;;;0.55;0.55;;;;;;;;;;7399229;19;20176;-91
2023/05/31 15:12:02;;;;;;;0.60;0.60;;;;;;;;;;7402226;19;20121;-92
2023/05/31 15:14:28;;;;;;;0.88;0.85;;;;;;;;;;7398820;19;20576;-91
2023/05/31 15:16:55;;;;;;;0.60;0.60;;;;;;;;;;7403326;19;20140;-91
2023/05/31 15:19:21;;;;;;;0.75;0.70;;;;;;;;;;7400537;19;20649;-91
2023/05/31 15:21:48;;;;;;;0.85;0.85;;;;;;;;;;7402757;19;20656;-91
2023/05/31 15:24:15;;;;;;;0.70;0.70;;;;;;;;;;7400706;19;20145;-93
2023/05/31 15:26:50;;;;;;;1.85;1.00;;;;;;;;;;7402703;19;20598;-92
2023/05/31 15:29:19;;;;;;;0.95;0.93;;;;;;;;;;7400089;19;20457;-92
2023/05/31 15:31:56;;;;;;;0.50;0.50;;;;;;;;;;7398080;19;20137;-93
2023/05/31 15:34:23;;;;;;;0.73;0.73;;;;;;;;;;7399640;19;20141;-93
2023/05/31 15:36:53;;;;;;;0.60;0.60;;;;;;;;;;7402062;19;20177;-92
2023/05/31 16:30:37;;;;;;;0.90;0.88;;;;;;;;;;7393384;19;20184;-88
2023/05/31 16:33:08;;;;;;;0.90;0.88;;;;;;;;;;7396972;19;20137;-91
2023/05/31 16:35:35;;;;;;;0.60;0.60;;;;;;;;;;7396105;19;20151;-91
2023/05/31 16:38:02;;;;;;;0.85;0.63;;;;;;;;;;7397180;19;20531;-91
2023/05/31 16:40:30;;;;;;;0.55;0.55;;;;;;;;;;7395010;19;20169;-91
2023/05/31 16:42:58;;;;;;;0.65;0.63;;;;;;;;;;7400651;19;20496;-91
2023/05/31 16:45:26;;;;;;;0.75;0.75;;;;;;;;;;7400824;19;20141;-91
2023/05/31 16:47:54;;;;;;;0.60;0.60;;;;;;;;;;7406895;19;20151;-91
2023/05/31 16:50:21;;;;;;;1.60;1.50;;;;;;;;;;7396886;19;20173;-90
2023/05/31 16:52:51;;;;;;;0.68;0.68;;;;;;;;;;7391272;19;20144;-91
2023/05/31 16:55:19;;;;;;;2.65;1.08;;;;;;;;;;7390851;19;20145;-91
2023/05/31 16:57:47;;;;;;;0.60;0.60;;;;;;;;;;7395405;19;20172;-90
2023/05/31 17:00:14;;;;;;;1.35;1.25;;;;;;;;;;7393418;19;20208;-91
2023/05/31 17:02:41;;;;;;;0.65;0.65;;;;;;;;;;7397798;19;20148;-88
2023/05/31 17:05:08;;;;;;;0.73;0.73;;;;;;;;;;7397595;19;20149;-89
2023/05/31 17:07:35;;;;;;;0.70;0.70;;;;;;;;;;7399372;19;20136;-88
2023/05/31 17:10:01;;;;;;;0.60;0.60;;;;;;;;;;7397264;19;20164;-88
2023/05/31 17:12:28;;;;;;;0.65;0.65;;;;;;;;;;7398209;19;20200;-88
2023/05/31 17:14:55;;;;;;;0.75;0.75;;;;;;;;;;7398841;19;20176;-88
2023/05/31 17:17:21;;;;;;;0.60;0.60;;;;;;;;;;7401359;19;20550;-89
2023/05/31 17:19:48;;;;;;;1.30;1.20;;;;;;;;;;7398541;19;20159;-88
2023/05/31 17:22:15;;;;;;;0.70;0.70;;;;;;;;;;7399330;19;20160;-88
2023/05/31 17:24:42;;;;;;;1.10;1.10;;;;;;;;;;7395341;19;20129;-88
2023/05/31 17:27:09;;;;;;;0.40;0.40;;;;;;;;;;7398742;19;20151;-89
2023/05/31 17:29:35;;;;;;;0.55;0.55;;;;;;;;;;7392262;19;20149;-89
2023/05/31 17:32:02;;;;;;;0.32;0.32;;;;;;;;;;7397245;19;20163;-88
2023/05/31 17:34:29;;;;;;;0.57;0.57;;;;;;;;;;7392875;19;20169;-88
2023/05/31 17:36:56;;;;;;;0.65;0.65;;;;;;;;;;7395875;19;20144;-88
2023/05/31 17:39:22;;;;;;;1.88;1.48;;;;;;;;;;7392714;19;20151;-88
2023/05/31 17:41:50;;;;;;;0.63;0.63;;;;;;;;;;7392342;19;20129;-88
2023/05/31 17:44:16;;;;;;;0.50;0.50;;;;;;;;;;7397724;19;20552;-88
2023/05/31 17:46:43;;;;;;;2.60;0.65;;;;;;;;;;7395182;19;20137;-88
2023/05/31 17:49:09;;;;;;;0.85;0.85;;;;;;;;;;7399421;19;20133;-89
2023/05/31 17:51:36;;;;;;;0.52;0.52;;;;;;;;;;7397086;19;20251;-88
2023/05/31 17:54:03;;;;;;;0.65;0.65;;;;;;;;;;7396588;19;20147;-88
2023/05/31 17:56:30;;;;;;;0.70;0.70;;;;;;;;;;7395904;19;20139;-88
2023/05/31 17:58:57;;;;;;;0.45;0.45;;;;;;;;;;7393678;19;20139;-88
2023/05/31 18:01:23;;;;;;;1.27;0.85;;;;;;;;;;7393140;19;20201;-88
2023/05/31 18:03:50;;;;;;;0.50;0.50;;;;;;;;;;7395015;19;20455;-88
2023/05/31 18:06:17;;;;;;;0.88;0.85;;;;;;;;;;7395554;19;20196;-88
2023/05/31 18:08:44;;;;;;;0.57;0.57;;;;;;;;;;7396739;19;20166;-88
2023/05/31 18:11:11;;;;;;;0.73;0.68;;;;;;;;;;7394826;19;20191;-89
2023/05/31 18:13:37;;;;;;;0.40;0.40;;;;;;;;;;7395443;19;20204;-88
2023/05/31 18:16:04;;;;;;;0.68;0.68;;;;;;;;;;7390865;19;20485;-88
2023/05/31 18:18:31;;;;;;;0.80;0.80;;;;;;;;;;7398166;19;20490;-89
2023/05/31 18:20:58;;;;;;;0.80;0.80;;;;;;;;;;7399047;19;20160;-89
2023/05/31 18:23:25;;;;;;;0.80;0.77;;;;;;;;;;7400536;19;20144;-89
2023/05/31 18:25:51;;;;;;;0.68;0.68;;;;;;;;;;7396459;19;20145;-89
2023/05/31 18:28:18;;;;;;;0.68;0.65;;;;;;;;;;7398068;19;20160;-89
2023/05/31 18:30:45;;;;;;;0.52;0.52;;;;;;;;;;7398128;19;20157;-89
2023/05/31 18:33:11;;;;;;;0.77;0.77;;;;;;;;;;7395874;19;20181;-88
2023/05/31 18:35:40;;;;;;;1.38;0.75;;;;;;;;;;7398321;19;20158;-88
2023/05/31 18:38:07;;;;;;;0.40;0.40;;;;;;;;;;7396522;19;20133;-88
2023/05/31 18:40:34;;;;;;;0.40;0.40;;;;;;;;;;7397961;19;20278;-89
2023/05/31 18:43:01;;;;;;;0.70;0.60;;;;;;;;;;7400960;19;20499;-89
2023/05/31 18:45:28;;;;;;;0.60;0.60;;;;;;;;;;7405231;19;20517;-89
2023/05/31 18:47:55;;;;;;;1.40;0.88;;;;;;;;;;7404399;19;20137;-89
2023/05/31 18:50:22;;;;;;;1.05;0.88;;;;;;;;;;7403342;19;20164;-88
2023/05/31 18:52:48;;;;;;;0.68;0.68;;;;;;;;;;7403832;19;20212;-89
2023/05/31 18:55:15;;;;;;;0.60;0.60;;;;;;;;;;7402435;19;20139;-89
2023/05/31 18:57:42;;;;;;;0.63;0.63;;;;;;;;;;7401724;19;20200;-89
2023/05/31 19:00:09;;;;;;;0.40;0.40;;;;;;;;;;7401054;19;20176;-89
2023/05/31 19:02:36;;;;;;;4.28;1.10;;;;;;;;;;7401572;19;20511;-89
2023/05/31 19:05:04;;;;;;;0.70;0.63;;;;;;;;;;7402327;19;20137;-89
2023/05/31 19:07:31;;;;;;;0.50;0.50;;;;;;;;;;7404005;19;20479;-90
2023/05/31 19:09:58;;;;;;;0.55;0.55;;;;;;;;;;7397363;19;20197;-90
2023/05/31 19:12:24;;;;;;;0.47;0.47;;;;;;;;;;7404683;19;20585;-89
2023/05/31 19:14:57;;;;;;;0.73;0.73;;;;;;;;;;7402576;19;20169;-89
2023/05/31 19:17:23;;;;;;;0.50;0.50;;;;;;;;;;7428256;19;20177;-89
2023/05/31 19:19:50;;;;;;;0.50;0.50;;;;;;;;;;7428996;19;20165;-89
2023/05/31 19:22:17;;;;;;;0.40;0.40;;;;;;;;;;7430503;19;20137;-87
2023/05/31 19:24:44;;;;;;;1.88;1.23;;;;;;;;;;7431372;19;20145;-89
2023/05/31 19:27:10;;;;;;;0.55;0.55;;;;;;;;;;7427189;19;20134;-88
2023/05/31 19:29:37;;;;;;;0.98;0.95;;;;;;;;;;7428685;19;20137;-88
2023/05/31 19:32:05;;;;;;;0.45;0.45;;;;;;;;;;7433002;19;20129;-88
2023/05/31 19:34:32;;;;;;;0.68;0.68;;;;;;;;;;7430223;19;20185;-88
2023/05/31 19:37:01;;;;;;;0.47;0.47;;;;;;;;;;7428769;19;20168;-87
2023/05/31 19:39:28;;;;;;;0.68;0.68;;;;;;;;;;7431338;19;20153;-88
2023/05/31 19:41:57;;;;;;;0.82;0.82;;;;;;;;;;7428876;19;20183;-87
2023/05/31 19:45:05;;;;;;;0.40;0.40;;;;;;;;;;7425844;19;20129;-88
2023/05/31 19:48:37;;;;;;;;;;;;;;;;;;;;;
2023/05/31 19:51:38;;;;;;;0.55;0.55;;;;;;;;;;7421008;19;20164;-88
2023/05/31 19:55:07;;;;;;;0.52;0.52;;;;;;;;;;7420258;19;20152;-88
2023/05/31 20:01:23;;;;;;;0.88;0.82;;;;;;;;;;7428745;19;20137;-89
2023/05/31 20:03:50;;;;;;;0.55;0.55;;;;;;;;;;7428370;19;20141;-88
2023/05/31 20:06:17;;;;;;;0.65;0.65;;;;;;;;;;7430786;19;20129;-89
2023/05/31 20:08:43;;;;;;;1.75;0.95;;;;;;;;;;7428988;19;20145;-90
2023/05/31 20:11:11;;;;;;;0.65;0.65;;;;;;;;;;7428144;19;20157;-90
2023/05/31 20:13:38;;;;;;;0.60;0.60;;;;;;;;;;7429274;19;20164;-89
2023/05/31 20:16:04;;;;;;;0.77;0.77;;;;;;;;;;7426546;19;20145;-89
2023/05/31 20:18:31;;;;;;;0.82;0.70;;;;;;;;;;7421386;19;20133;-90
2023/05/31 20:20:58;;;;;;;1.15;0.93;;;;;;;;;;7426772;19;20144;-90
2023/05/31 20:23:25;;;;;;;0.73;0.73;;;;;;;;;;7408550;19;20144;-90
2023/05/31 20:25:51;;;;;;;0.75;0.65;;;;;;;;;;7401942;19;20208;-90
2023/05/31 20:28:18;;;;;;;0.63;0.63;;;;;;;;;;7416728;19;20173;-88
2023/05/31 20:30:45;;;;;;;0.40;0.40;;;;;;;;;;7410229;19;20224;-90
2023/05/31 20:33:11;;;;;;;0.63;0.63;;;;;;;;;;7397342;19;20150;-89
2023/05/31 20:35:38;;;;;;;0.40;0.40;;;;;;;;;;7413168;19;20157;-88
2023/05/31 20:38:05;;;;;;;0.57;0.57;;;;;;;;;;7406712;19;20133;-88
2023/05/31 20:40:31;;;;;;;0.50;0.50;;;;;;;;;;7403762;19;20167;-88
2023/05/31 20:42:58;;;;;;;0.65;0.63;;;;;;;;;;7403989;19;20527;-88
2023/05/31 20:45:25;;;;;;;0.75;0.75;;;;;;;;;;7402177;19;20143;-92
2023/05/31 20:47:51;;;;;;;0.55;0.55;;;;;;;;;;7408847;19;20153;-93
2023/05/31 20:50:19;;;;;;;0.40;0.40;;;;;;;;;;7421900;19;20160;-93
2023/05/31 20:52:46;;;;;;;0.60;0.60;;;;;;;;;;7410357;19;20141;-93
2023/05/31 20:55:13;;;;;;;1.00;0.88;;;;;;;;;;7393395;19;20144;-93
2023/05/31 20:57:40;;;;;;;0.45;0.45;;;;;;;;;;7395236;19;20137;-93
2023/05/31 21:00:08;;;;;;;0.40;0.40;;;;;;;;;;7395065;19;20189;-92
2023/05/31 21:02:35;;;;;;;0.30;0.30;;;;;;;;;;7396268;19;20144;-92
2023/05/31 21:05:02;;;;;;;0.40;0.40;;;;;;;;;;7419271;19;20144;-92
2023/05/31 21:07:29;;;;;;;0.40;0.40;;;;;;;;;;7399176;19;20534;-92
2023/05/31 21:10:06;;;;;;;0.52;0.52;;;;;;;;;;7392749;19;20168;-92
2023/05/31 21:12:42;;;;;;;0.57;0.57;;;;;;;;;;7397213;19;20161;-91
2023/05/31 21:15:12;;;;;;;0.40;0.40;;;;;;;;;;7385245;19;20249;-91
2023/05/31 21:17:50;;;;;;;1.17;1.13;;;;;;;;;;7384902;19;20145;-92
2023/05/31 21:20:17;;;;;;;1.50;1.23;;;;;;;;;;7378360;19;20636;-90
2023/05/31 21:22:45;;;;;;;0.80;0.80;;;;;;;;;;7388417;19;20216;-89
2023/05/31 21:25:12;;;;;;;0.40;0.40;;;;;;;;;;7388481;19;20145;-91